createdAt,value
2022-07-25T00:00:26.527Z,61.24
2022-07-25T00:02:54.905Z,61.67
2022-07-25T00:05:37.996Z,61.79
2022-07-25T00:08:06.892Z,61.84
2022-07-25T00:10:35.398Z,61.64
2022-07-25T00:13:05.308Z,61.73
2022-07-25T00:15:33.762Z,61.80
2022-07-25T00:18:02.066Z,61.65
2022-07-25T00:20:30.187Z,61.61
2022-07-25T00:22:59.613Z,61.60
2022-07-25T00:25:30.482Z,61.63
2022-07-25T00:27:58.451Z,61.57
2022-07-25T00:30:28.888Z,61.68
2022-07-25T00:32:57.531Z,61.56
2022-07-25T00:35:26.122Z,61.74
2022-07-25T00:37:55.258Z,61.81
2022-07-25T00:40:23.992Z,61.76
2022-07-25T00:42:52.612Z,61.78
2022-07-25T00:45:21.959Z,61.47
2022-07-25T00:47:51.724Z,61.35
2022-07-25T00:50:19.898Z,61.40
2022-07-25T00:52:48.363Z,61.19
2022-07-25T00:55:16.877Z,61.30
2022-07-25T00:57:45.289Z,61.25
2022-07-25T01:00:16.589Z,61.28
2022-07-25T01:02:46.303Z,61.36
2022-07-25T01:05:16.124Z,61.43
2022-07-25T01:07:44.281Z,61.18
2022-07-25T01:10:15.127Z,61.30
2022-07-25T01:12:49.218Z,61.54
2022-07-25T01:15:20.892Z,61.41
2022-07-25T01:17:50.282Z,61.58
2022-07-25T01:20:20.733Z,61.59
2022-07-25T01:22:48.809Z,61.54
2022-07-25T01:25:17.054Z,61.61
2022-07-25T01:27:52.922Z,61.67
2022-07-25T01:30:24.624Z,61.69
2022-07-25T01:32:53.567Z,61.83
2022-07-25T01:35:24.362Z,62.00
2022-07-25T01:37:54.099Z,61.87
2022-07-25T01:40:22.193Z,61.85
2022-07-25T01:42:50.631Z,61.53
2022-07-25T01:45:19.246Z,61.45
2022-07-25T01:47:47.581Z,61.41
2022-07-25T01:50:15.706Z,61.27
2022-07-25T01:52:45.432Z,61.48
2022-07-25T01:55:13.903Z,61.68
2022-07-25T01:57:48.629Z,61.78
2022-07-25T02:00:18.503Z,61.53
2022-07-25T02:02:46.953Z,61.69
2022-07-25T02:05:16.359Z,61.86
2022-07-25T02:07:45.792Z,61.71
2022-07-25T02:10:14.181Z,61.81
2022-07-25T02:12:47.368Z,61.79
2022-07-25T02:15:15.524Z,61.92
2022-07-25T02:17:43.765Z,62.01
2022-07-25T02:20:13.106Z,61.99
2022-07-25T02:22:41.161Z,62.02
2022-07-25T02:25:11.874Z,62.11
2022-07-25T02:27:40.346Z,62.28
2022-07-25T02:30:09.500Z,62.19
2022-07-25T02:32:37.870Z,62.19
2022-07-25T02:35:13.272Z,62.34
2022-07-25T02:37:42.358Z,62.45
2022-07-25T02:40:15.081Z,62.44
2022-07-25T02:42:43.208Z,62.55
2022-07-25T02:45:13.990Z,62.59
2022-07-25T02:47:42.247Z,62.69
2022-07-25T02:50:15.019Z,62.85
2022-07-25T02:52:43.492Z,62.96
2022-07-25T02:55:13.674Z,62.92
2022-07-25T02:57:41.946Z,62.92
2022-07-25T03:00:11.703Z,63.07
2022-07-25T03:02:40.787Z,63.11
2022-07-25T03:05:10.302Z,63.27
2022-07-25T03:07:38.665Z,63.32
2022-07-25T03:10:11.185Z,63.16
2022-07-25T03:12:41.898Z,63.38
2022-07-25T03:15:11.706Z,63.37
2022-07-25T03:17:41.075Z,63.27
2022-07-25T03:20:10.225Z,63.28
2022-07-25T03:22:39.035Z,63.33
2022-07-25T03:25:15.580Z,63.16
2022-07-25T03:27:51.976Z,63.22
2022-07-25T03:30:20.033Z,63.47
2022-07-25T03:32:48.489Z,63.34
2022-07-25T03:35:16.647Z,63.40
2022-07-25T03:37:47.021Z,63.23
2022-07-25T03:40:16.106Z,63.44
2022-07-25T03:42:44.407Z,63.42
2022-07-25T03:45:15.354Z,63.15
2022-07-25T03:47:43.352Z,63.07
2022-07-25T03:50:11.490Z,62.93
2022-07-25T03:52:39.725Z,62.91
2022-07-25T03:55:10.109Z,62.74
2022-07-25T03:57:39.878Z,62.69
2022-07-25T04:00:10.257Z,62.64
2022-07-25T04:02:40.135Z,62.30
2022-07-25T04:05:09.912Z,62.09
2022-07-25T04:07:38.417Z,61.21
2022-07-25T04:10:08.151Z,60.75
2022-07-25T04:12:36.669Z,60.12
2022-07-25T04:15:05.314Z,59.86
2022-07-25T04:17:33.603Z,59.80
2022-07-25T04:20:03.351Z,59.20
2022-07-25T04:22:35.649Z,58.61
2022-07-25T04:25:09.114Z,57.64
2022-07-25T04:27:37.271Z,56.89
2022-07-25T04:30:09.425Z,55.44
2022-07-25T04:32:37.661Z,54.48
2022-07-25T04:35:09.733Z,54.05
2022-07-25T04:37:38.087Z,53.68
2022-07-25T04:40:09.217Z,53.03
2022-07-25T04:42:37.335Z,52.32
2022-07-25T04:45:06.131Z,51.52
2022-07-25T04:47:34.304Z,50.99
2022-07-25T04:50:08.249Z,50.30
2022-07-25T04:52:36.766Z,49.67
2022-07-25T04:55:05.697Z,49.41
2022-07-25T04:57:34.104Z,49.15
2022-07-25T05:00:02.621Z,49.06
2022-07-25T05:02:31.396Z,48.51
2022-07-25T05:05:02.915Z,48.35
2022-07-25T05:07:35.323Z,47.54
2022-07-25T05:10:04.391Z,46.15
2022-07-25T05:12:32.805Z,46.41
2022-07-25T05:15:00.926Z,46.91
2022-07-25T05:17:29.177Z,46.80
2022-07-25T05:19:58.376Z,46.85
2022-07-25T05:22:29.087Z,46.36
2022-07-25T05:24:58.813Z,45.97
2022-07-25T05:27:26.894Z,45.83
2022-07-25T05:29:55.157Z,45.37
2022-07-25T05:32:23.668Z,45.29
2022-07-25T05:34:52.457Z,45.44
2022-07-25T05:37:22.245Z,44.80
2022-07-25T05:39:50.404Z,44.49
2022-07-25T05:42:20.041Z,44.16
2022-07-25T05:44:48.319Z,44.25
2022-07-25T05:47:16.988Z,43.48
2022-07-25T05:49:46.029Z,43.30
2022-07-25T05:52:15.507Z,43.15
2022-07-25T05:54:45.312Z,43.04
2022-07-25T05:57:13.519Z,42.72
2022-07-25T05:59:47.375Z,42.51
2022-07-25T06:02:15.927Z,42.64
2022-07-25T06:04:44.137Z,42.93
2022-07-25T06:07:15.080Z,42.80
2022-07-25T06:09:46.063Z,42.31
2022-07-25T06:12:14.969Z,41.89
2022-07-25T06:14:46.878Z,42.15
2022-07-25T06:17:15.640Z,42.07
2022-07-25T06:19:47.195Z,41.88
2022-07-25T06:22:15.291Z,41.26
2022-07-25T06:24:43.781Z,41.65
2022-07-25T06:27:14.937Z,42.04
2022-07-25T06:29:46.767Z,41.76
2022-07-25T06:32:15.980Z,41.58
2022-07-25T06:34:44.066Z,42.39
2022-07-25T06:37:13.582Z,42.22
2022-07-25T06:39:45.611Z,42.45
2022-07-25T06:42:14.307Z,42.27
2022-07-25T06:44:43.084Z,42.37
2022-07-25T06:47:14.414Z,42.40
2022-07-25T06:49:43.638Z,41.84
2022-07-25T06:52:11.836Z,41.95
2022-07-25T06:54:40.155Z,41.79
2022-07-25T06:57:10.999Z,41.24
2022-07-25T06:59:41.987Z,41.04
2022-07-25T07:02:10.432Z,41.05
2022-07-25T07:04:41.073Z,41.04
2022-07-25T07:07:10.572Z,40.38
2022-07-25T07:09:39.529Z,40.30
2022-07-25T07:12:08.735Z,39.51
2022-07-25T07:14:38.512Z,39.57
2022-07-25T07:17:07.467Z,39.36
2022-07-25T07:19:35.999Z,38.95
2022-07-25T07:22:05.714Z,38.58
2022-07-25T07:24:42.840Z,38.45
2022-07-25T07:27:12.809Z,38.35
2022-07-25T07:29:43.588Z,37.87
2022-07-25T07:32:11.787Z,37.40
2022-07-25T07:34:40.379Z,37.34
2022-07-25T07:37:10.919Z,37.42
2022-07-25T07:39:39.065Z,36.37
2022-07-25T07:42:09.585Z,36.94
2022-07-25T07:44:37.772Z,36.48
2022-07-25T07:47:07.482Z,36.40
2022-07-25T07:49:50.369Z,35.95
2022-07-25T07:52:23.328Z,35.88
2022-07-25T07:55:11.064Z,36.58
2022-07-25T07:57:39.471Z,36.09
2022-07-25T08:00:12.387Z,35.92
2022-07-25T08:02:44.477Z,35.90
2022-07-25T08:05:13.411Z,36.46
2022-07-25T08:07:42.989Z,36.46
2022-07-25T08:10:15.323Z,37.04
2022-07-25T08:12:43.656Z,36.67
2022-07-25T08:15:13.081Z,36.53
2022-07-25T08:17:47.030Z,36.53
2022-07-25T08:20:37.024Z,36.08
2022-07-25T08:23:06.133Z,37.01
2022-07-25T08:25:36.403Z,36.68
2022-07-25T08:28:06.411Z,36.54
2022-07-25T08:30:39.766Z,35.40
2022-07-25T08:33:19.178Z,35.05
2022-07-25T08:35:48.597Z,35.15
2022-07-25T08:38:20.563Z,34.74
2022-07-25T08:40:50.833Z,34.36
2022-07-25T08:43:21.053Z,34.42
2022-07-25T08:45:52.152Z,34.01
2022-07-25T08:48:23.629Z,34.42
2022-07-25T08:50:54.950Z,34.79
2022-07-25T08:53:34.295Z,34.69
2022-07-25T08:56:20.440Z,33.80
2022-07-25T08:59:14.889Z,34.19
2022-07-25T09:01:45.466Z,34.11
2022-07-25T09:04:19.790Z,34.35
2022-07-25T09:06:51.688Z,34.49
2022-07-25T09:09:31.272Z,34.43
2022-07-25T09:11:59.963Z,34.41
2022-07-25T09:14:30.032Z,34.30
2022-07-25T09:16:59.632Z,34.05
2022-07-25T09:19:32.291Z,33.67
2022-07-25T09:22:04.799Z,33.82
2022-07-25T09:24:36.369Z,33.73
2022-07-25T09:27:12.446Z,33.32
2022-07-25T09:29:42.528Z,33.68
2022-07-25T09:32:22.187Z,34.25
2022-07-25T09:34:51.634Z,34.04
2022-07-25T09:37:25.615Z,33.75
2022-07-25T09:39:55.495Z,33.92
2022-07-25T09:42:26.159Z,33.91
2022-07-25T09:45:04.384Z,34.04
2022-07-25T09:47:33.970Z,33.90
2022-07-25T09:50:02.384Z,33.90
2022-07-25T09:52:33.968Z,33.49
2022-07-25T09:55:06.138Z,33.38
2022-07-25T09:57:34.345Z,33.07
2022-07-25T10:00:03.865Z,33.15
2022-07-25T10:02:42.557Z,32.89
2022-07-25T10:05:20.758Z,32.00
2022-07-25T10:07:51.791Z,31.89
2022-07-25T10:10:29.236Z,32.57
2022-07-25T10:13:11.273Z,32.28
2022-07-25T10:15:51.451Z,32.48
2022-07-25T10:18:21.499Z,32.49
2022-07-25T10:20:51.976Z,32.49
2022-07-25T10:23:21.919Z,32.04
2022-07-25T10:26:02.921Z,32.06
2022-07-25T10:28:39.529Z,32.01
2022-07-25T10:31:19.564Z,32.24
2022-07-25T10:33:50.704Z,31.88
2022-07-25T10:36:30.297Z,32.21
2022-07-25T10:39:00.270Z,32.24
2022-07-25T10:41:36.177Z,32.32
2022-07-25T10:44:05.156Z,31.93
2022-07-25T10:46:36.460Z,31.56
2022-07-25T10:49:09.271Z,31.68
2022-07-25T10:51:42.281Z,31.98
2022-07-25T10:54:14.923Z,31.95
2022-07-25T10:56:59.150Z,32.01
2022-07-25T10:59:30.160Z,31.41
2022-07-25T11:01:59.930Z,31.32
2022-07-25T11:04:33.827Z,30.93
2022-07-25T11:07:09.741Z,30.99
2022-07-25T11:09:38.821Z,31.44
2022-07-25T11:12:10.299Z,31.34
2022-07-25T11:14:41.541Z,31.59
2022-07-25T11:17:15.648Z,31.98
2022-07-25T11:19:46.998Z,31.85
2022-07-25T11:22:17.897Z,31.30
2022-07-25T11:24:47.741Z,31.09
2022-07-25T11:27:28.691Z,31.28
2022-07-25T11:30:07.420Z,31.26
2022-07-25T11:32:42.020Z,31.06
2022-07-25T11:35:12.316Z,31.37
2022-07-25T11:37:48.641Z,32.46
2022-07-25T11:40:18.716Z,32.56
2022-07-25T11:42:53.299Z,31.89
2022-07-25T11:45:23.392Z,31.82
2022-07-25T11:48:05.896Z,32.04
2022-07-25T11:50:35.579Z,31.88
2022-07-25T11:53:06.189Z,31.47
2022-07-25T11:55:38.137Z,31.18
2022-07-25T11:58:10.613Z,31.18
2022-07-25T12:00:42.955Z,31.49
2022-07-25T12:03:18.674Z,31.37
2022-07-25T12:05:48.632Z,31.70
2022-07-25T12:08:18.746Z,31.74
2022-07-25T12:10:49.349Z,31.45
2022-07-25T12:13:28.251Z,31.51
2022-07-25T12:15:57.352Z,31.57
2022-07-25T12:18:25.913Z,31.71
2022-07-25T12:20:54.457Z,31.64
2022-07-25T12:23:22.685Z,31.70
2022-07-25T12:25:50.934Z,31.60
2022-07-25T12:28:19.372Z,32.04
2022-07-25T12:30:54.474Z,32.06
2022-07-25T12:33:26.857Z,32.06
2022-07-25T12:35:55.021Z,32.12
2022-07-25T12:38:24.947Z,32.29
2022-07-25T12:40:53.224Z,32.00
2022-07-25T12:43:26.327Z,31.80
2022-07-25T12:45:57.503Z,31.85
2022-07-25T12:48:26.189Z,31.99
2022-07-25T12:50:54.392Z,32.30
2022-07-25T12:53:25.188Z,32.40
2022-07-25T12:55:53.419Z,32.93
2022-07-25T12:58:21.698Z,32.34
2022-07-25T13:00:54.917Z,32.32
2022-07-25T13:03:27.179Z,32.20
2022-07-25T13:06:02.696Z,32.11
2022-07-25T13:08:37.869Z,31.72
2022-07-25T13:11:06.414Z,32.04
2022-07-25T13:13:34.920Z,32.18
2022-07-25T13:16:03.622Z,32.65
2022-07-25T13:18:33.492Z,32.40
2022-07-25T13:21:03.534Z,32.14
2022-07-25T13:23:34.916Z,31.84
2022-07-25T13:26:04.108Z,31.91
2022-07-25T13:28:32.825Z,32.02
2022-07-25T13:31:01.888Z,32.24
2022-07-25T13:33:32.733Z,32.08
2022-07-25T13:36:02.674Z,31.90
2022-07-25T13:38:31.280Z,31.87
2022-07-25T13:41:06.418Z,31.89
2022-07-25T13:43:36.266Z,31.79
2022-07-25T13:46:05.364Z,31.52
2022-07-25T13:48:33.955Z,31.64
2022-07-25T13:51:03.974Z,31.97
2022-07-25T13:53:32.102Z,31.73
2022-07-25T13:56:01.053Z,31.95
2022-07-25T13:58:35.666Z,31.89
2022-07-25T14:01:05.938Z,31.68
2022-07-25T14:03:38.641Z,31.70
2022-07-25T14:06:12.626Z,31.36
2022-07-25T14:08:43.370Z,31.42
2022-07-25T14:11:11.590Z,31.80
2022-07-25T14:13:43.654Z,31.85
2022-07-25T14:16:14.152Z,31.27
2022-07-25T14:18:43.423Z,31.14
2022-07-25T14:21:31.137Z,31.33
2022-07-25T14:24:00.681Z,31.56
2022-07-25T14:26:31.274Z,31.68
2022-07-25T14:28:59.759Z,31.86
2022-07-25T14:31:36.203Z,32.02
2022-07-25T14:34:04.778Z,31.95
2022-07-25T14:36:35.716Z,32.30
2022-07-25T14:39:07.306Z,32.14
2022-07-25T14:41:35.842Z,32.23
2022-07-25T14:44:04.577Z,31.69
2022-07-25T14:46:33.933Z,31.87
2022-07-25T14:49:02.758Z,31.95
2022-07-25T14:51:31.000Z,32.01
2022-07-25T14:54:02.209Z,32.15
2022-07-25T14:56:30.541Z,32.39
2022-07-25T14:58:59.277Z,32.84
2022-07-25T15:01:27.498Z,32.42
2022-07-25T15:03:57.161Z,32.88
2022-07-25T15:06:29.170Z,32.92
2022-07-25T15:08:58.552Z,32.50
2022-07-25T15:11:28.471Z,32.45
2022-07-25T15:13:57.271Z,32.75
2022-07-25T15:16:26.980Z,32.59
2022-07-25T15:19:16.031Z,32.52
2022-07-25T15:21:45.228Z,32.72
2022-07-25T15:24:14.275Z,32.48
2022-07-25T15:26:44.132Z,32.22
2022-07-25T15:29:15.246Z,32.37
2022-07-25T15:31:43.667Z,32.18
2022-07-25T15:34:12.002Z,32.09
2022-07-25T15:36:40.182Z,31.69
2022-07-25T15:39:09.144Z,31.59
2022-07-25T15:41:38.782Z,31.52
2022-07-25T15:44:08.827Z,31.48
2022-07-25T15:46:40.498Z,31.63
2022-07-25T15:49:09.582Z,31.48
2022-07-25T15:51:38.054Z,31.62
2022-07-25T15:54:06.789Z,31.43
2022-07-25T15:56:36.646Z,31.41
2022-07-25T15:59:05.740Z,31.68
2022-07-25T16:01:35.585Z,31.75
2022-07-25T16:04:03.842Z,31.58
2022-07-25T16:06:32.102Z,31.88
2022-07-25T16:09:00.578Z,32.13
2022-07-25T16:11:29.349Z,32.00
2022-07-25T16:13:57.724Z,32.15
2022-07-25T16:16:26.799Z,32.43
2022-07-25T16:18:58.584Z,32.62
2022-07-25T16:21:26.474Z,32.93
2022-07-25T16:23:54.588Z,33.20
2022-07-25T16:26:24.696Z,33.35
2022-07-25T16:29:05.762Z,33.37
2022-07-25T16:31:34.074Z,33.84
2022-07-25T16:34:03.601Z,37.85
2022-07-25T16:36:32.062Z,39.64
2022-07-25T16:39:01.119Z,40.67
2022-07-25T16:41:29.348Z,42.21
2022-07-25T16:44:01.111Z,43.00
2022-07-25T16:46:29.508Z,43.77
2022-07-25T16:48:57.890Z,43.94
2022-07-25T16:51:27.396Z,44.10
2022-07-25T16:53:55.883Z,44.72
2022-07-25T16:56:24.183Z,45.16
2022-07-25T16:58:53.805Z,45.69
2022-07-25T17:01:25.061Z,46.11
2022-07-25T17:03:53.327Z,46.55
2022-07-25T17:06:24.144Z,46.39
2022-07-25T17:08:53.589Z,45.95
2022-07-25T17:11:23.457Z,45.48
2022-07-25T17:13:51.682Z,45.11
2022-07-25T17:16:20.762Z,45.04
2022-07-25T17:18:49.444Z,45.51
2022-07-25T17:21:18.537Z,47.36
2022-07-25T17:23:47.968Z,47.85
2022-07-25T17:26:17.568Z,49.13
2022-07-25T17:28:45.817Z,49.73
2022-07-25T17:31:14.114Z,50.44
2022-07-25T17:33:42.815Z,51.20
2022-07-25T17:36:11.066Z,50.68
2022-07-25T17:38:39.644Z,51.45
2022-07-25T17:41:08.119Z,51.06
2022-07-25T17:43:38.393Z,50.85
2022-07-25T17:46:10.371Z,53.24
2022-07-25T17:48:39.069Z,52.82
2022-07-25T17:51:07.744Z,52.63
2022-07-25T17:53:35.945Z,52.75
2022-07-25T17:56:04.762Z,52.80
2022-07-25T17:58:33.390Z,54.34
2022-07-25T18:01:05.923Z,53.91
2022-07-25T18:03:38.537Z,52.79
2022-07-25T18:06:08.351Z,52.37
2022-07-25T18:08:37.804Z,51.77
2022-07-25T18:11:06.013Z,53.66
2022-07-25T18:13:34.757Z,50.88
2022-07-25T18:16:05.025Z,50.65
2022-07-25T18:18:33.159Z,50.48
2022-07-25T18:21:03.088Z,50.42
2022-07-25T18:23:31.286Z,50.53
2022-07-25T18:26:00.671Z,50.72
2022-07-25T18:28:29.017Z,51.25
2022-07-25T18:30:57.337Z,51.59
2022-07-25T18:33:29.805Z,51.77
2022-07-25T18:35:57.960Z,52.33
2022-07-25T18:38:26.138Z,52.35
2022-07-25T18:41:18.937Z,52.54
2022-07-25T18:43:42.582Z,53.09
2022-07-25T18:46:14.702Z,53.80
2022-07-25T18:48:45.087Z,54.66
2022-07-25T18:51:13.314Z,55.12
2022-07-25T18:53:46.000Z,55.47
2022-07-25T18:56:16.440Z,55.79
2022-07-25T18:58:44.890Z,55.99
2022-07-25T19:01:14.070Z,56.20
2022-07-25T19:03:45.320Z,56.32
2022-07-25T19:06:16.313Z,56.65
2022-07-25T19:08:47.822Z,56.75
2022-07-25T19:11:15.889Z,56.84
2022-07-25T19:13:50.648Z,56.98
2022-07-25T19:16:20.814Z,57.09
2022-07-25T19:18:50.951Z,57.26
2022-07-25T19:21:23.037Z,57.35
2022-07-25T19:23:52.376Z,57.63
2022-07-25T19:26:21.296Z,57.76
2022-07-25T19:28:51.438Z,58.09
2022-07-25T19:31:19.669Z,58.31
2022-07-25T19:33:48.020Z,58.92
2022-07-25T19:36:17.808Z,59.50
2022-07-25T19:38:45.951Z,60.30
2022-07-25T19:41:14.601Z,60.78
2022-07-25T19:43:43.627Z,60.18
2022-07-25T19:46:11.883Z,60.37
2022-07-25T19:48:41.070Z,60.57
2022-07-25T19:51:09.823Z,60.97
2022-07-25T19:53:39.517Z,61.26
2022-07-25T19:56:09.228Z,61.29
2022-07-25T19:58:39.109Z,61.99
2022-07-25T20:01:11.778Z,62.78
2022-07-25T20:03:41.036Z,63.54
2022-07-25T20:06:11.542Z,64.17
2022-07-25T20:08:42.887Z,65.00
2022-07-25T20:11:11.558Z,65.55
2022-07-25T20:13:40.076Z,66.17
2022-07-25T20:16:08.642Z,66.81
2022-07-25T20:18:37.797Z,68.05
2022-07-25T20:21:08.002Z,68.51
2022-07-25T20:23:36.691Z,69.03
2022-07-25T20:26:08.703Z,69.21
2022-07-25T20:28:38.126Z,69.77
2022-07-25T20:31:06.567Z,70.24
2022-07-25T20:33:34.660Z,70.35
2022-07-25T20:36:03.647Z,70.88
2022-07-25T20:38:32.330Z,71.39
2022-07-25T20:41:03.538Z,72.02
2022-07-25T20:43:33.397Z,72.48
2022-07-25T20:46:07.473Z,72.95
2022-07-25T20:48:37.627Z,72.97
2022-07-25T20:51:06.500Z,73.65
2022-07-25T20:53:35.803Z,73.85
2022-07-25T20:56:03.983Z,74.11
2022-07-25T20:58:36.666Z,74.37
2022-07-25T21:01:05.996Z,74.64
2022-07-25T21:03:35.781Z,75.09
2022-07-25T21:06:05.174Z,75.12
2022-07-25T21:08:33.249Z,75.30
2022-07-25T21:11:01.620Z,75.48
2022-07-25T21:13:30.771Z,75.63
2022-07-25T21:16:02.616Z,75.79
2022-07-25T21:18:33.129Z,75.74
2022-07-25T21:21:01.968Z,75.82
2022-07-25T21:23:30.552Z,75.91
2022-07-25T21:26:00.131Z,76.05
2022-07-25T21:28:28.173Z,76.10
2022-07-25T21:30:56.996Z,76.34
2022-07-25T21:33:28.453Z,76.57
2022-07-25T21:35:56.521Z,78.11
2022-07-25T21:38:28.835Z,78.72
2022-07-25T21:40:59.241Z,79.94
2022-07-25T21:43:27.718Z,80.59
2022-07-25T21:45:56.043Z,81.54
2022-07-25T21:48:44.744Z,82.40
2022-07-25T21:51:19.289Z,83.11
2022-07-25T21:53:51.717Z,83.66
2022-07-25T21:56:21.931Z,84.10
2022-07-25T21:58:51.891Z,84.68
2022-07-25T22:01:20.967Z,85.06
2022-07-25T22:03:49.779Z,85.22
2022-07-25T22:06:19.469Z,85.64
2022-07-25T22:08:47.529Z,85.78
2022-07-25T22:11:38.371Z,86.04
2022-07-25T22:14:06.396Z,86.33
2022-07-25T22:16:34.962Z,86.27
2022-07-25T22:19:03.281Z,86.17
2022-07-25T22:21:35.280Z,85.91
2022-07-25T22:24:05.155Z,85.71
2022-07-25T22:26:33.915Z,85.48
2022-07-25T22:29:05.294Z,85.57
2022-07-25T22:31:34.242Z,85.76
2022-07-25T22:34:02.613Z,85.80
2022-07-25T22:36:32.891Z,85.81
2022-07-25T22:39:01.037Z,85.99
2022-07-25T22:41:29.751Z,86.03
2022-07-25T22:43:59.884Z,85.96
2022-07-25T22:46:29.494Z,85.94
2022-07-25T22:48:57.969Z,86.09
2022-07-25T22:51:26.379Z,86.26
2022-07-25T22:53:56.137Z,86.39
2022-07-25T22:56:24.883Z,86.36
2022-07-25T22:58:53.388Z,86.45
2022-07-25T23:01:25.643Z,86.76
2022-07-25T23:03:53.594Z,86.77
2022-07-25T23:06:22.465Z,87.01
2022-07-25T23:08:50.914Z,87.03
2022-07-25T23:11:21.553Z,87.25
2022-07-25T23:13:50.961Z,87.33
2022-07-25T23:16:22.804Z,87.37
2022-07-25T23:18:50.883Z,87.37
2022-07-25T23:21:21.102Z,87.68
2022-07-25T23:23:49.964Z,87.73
2022-07-25T23:26:22.488Z,87.97
2022-07-25T23:28:54.370Z,87.99
2022-07-25T23:31:22.784Z,87.89
2022-07-25T23:33:51.028Z,87.75
2022-07-25T23:36:19.550Z,87.81
2022-07-25T23:38:47.576Z,87.82
2022-07-25T23:41:16.005Z,87.84
2022-07-25T23:43:57.361Z,87.78
2022-07-25T23:46:29.565Z,87.52
2022-07-25T23:49:01.062Z,87.39
2022-07-25T23:51:29.298Z,87.42
2022-07-25T23:53:57.916Z,87.71
2022-07-25T23:56:27.383Z,87.82
2022-07-25T23:59:01.297Z,88.10
